F/V Roseau Du Lac — FHMW — position and weather

sailwx.info

Track history (hours):
 
Tides and Currents Weather Stations Pressure Air Temp Water Temp Dewpoint Dewpoint Depression Visibility Wind Speed Wind Dir Waves Ship Positions

F/V Roseau Du Lac

Last reported at 2017-Nov-20 00:30 UTC. Time now 2017-Nov-21 00:57 UTC.
Position N 47°02' W 002°18'.

Length 16 m.

Type: Fishing. MMSI: 227977000.

Date/timePositionNaut miles runAvg speedWind from/ knotsBaromVisibWave heightAir tempDewpointWater temp
2017-Nov-20 00:30N 47°02' W 002°18'0 0.0
2017-Nov-20 00:00N 47°02' W 002°18'0 0.0
2017-Nov-19 23:30N 47°02' W 002°18'0 0.0
2017-Nov-19 23:00N 47°02' W 002°18'0 0.0
2017-Nov-19 22:30N 47°02' W 002°18'0 0.0
2017-Nov-19 22:00N 47°02' W 002°18'0 0.0
2017-Nov-19 21:30N 47°02' W 002°18'0 0.0
2017-Nov-19 21:00N 47°02' W 002°18'0 0.0
2017-Nov-19 20:30N 47°02' W 002°18'0 0.0
2017-Nov-19 20:00N 47°02' W 002°18'0 0.0
2017-Nov-19 19:30N 47°02' W 002°18'0 0.0
2017-Nov-19 19:00N 47°02' W 002°18'0 0.0
2017-Nov-19 18:30N 47°02' W 002°18'0 0.0
2017-Nov-19 18:00N 47°02' W 002°18'0 0.0
2017-Nov-19 17:30N 47°02' W 002°18'0 0.0
2017-Nov-19 17:00N 47°02' W 002°18'0 0.0
2017-Nov-19 16:30N 47°02' W 002°18'0 0.0
2017-Nov-19 16:00N 47°02' W 002°18'0 0.0
2017-Nov-19 15:29N 47°02' W 002°18'0 0.0
2017-Nov-19 15:00N 47°02' W 002°18'0 0.0
2017-Nov-19 14:30N 47°02' W 002°18'0 0.0
2017-Nov-19 13:53N 47°02' W 002°18'0 0.0
2017-Nov-19 13:23N 47°02' W 002°18'0 0.0
2017-Nov-19 12:58N 47°02' W 002°18'0 0.0
2017-Nov-19 12:29N 47°02' W 002°18'0 0.0
2017-Nov-19 12:00N 47°02' W 002°18'0 0.0
2017-Nov-19 11:30N 47°02' W 002°18'0 0.0
2017-Nov-19 11:00N 47°02' W 002°18'0 0.0
2017-Nov-19 10:30N 47°02' W 002°18'0 0.0
2017-Nov-19 10:00N 47°02' W 002°18'0 0.0
2017-Nov-19 09:30N 47°02' W 002°18'0 0.0
2017-Nov-19 09:00N 47°02' W 002°18'0 0.0
2017-Nov-19 08:30N 47°02' W 002°18'0 0.0
2017-Nov-19 08:00N 47°02' W 002°18'0 0.0
2017-Nov-19 07:30N 47°02' W 002°18'0 0.0
2017-Nov-19 07:00N 47°02' W 002°18'0 0.0
2017-Nov-19 06:30N 47°02' W 002°18'0 0.0
2017-Nov-19 06:00N 47°02' W 002°18'0 0.0
2017-Nov-19 05:30N 47°02' W 002°18'0 0.0
2017-Nov-19 05:00N 47°02' W 002°18'0 0.0
2017-Nov-19 04:30N 47°02' W 002°18'0 0.0
2017-Nov-19 03:59N 47°02' W 002°18'0 0.0
2017-Nov-19 03:30N 47°02' W 002°18'0 0.0
2017-Nov-19 02:53N 47°02' W 002°18'0 0.0
2017-Nov-19 02:30N 47°02' W 002°18'0 0.0
2017-Nov-19 02:00N 47°02' W 002°18'0 0.0
2017-Nov-19 01:29N 47°02' W 002°18'0 0.0
2017-Nov-19 00:58N 47°02' W 002°18'0 0.0
2017-Nov-19 00:30N 47°02' W 002°18'0 0.0
2017-Nov-19 00:00N 47°02' W 002°18'0 0.0
2017-Nov-18 23:30N 47°02' W 002°18'0 0.0
2017-Nov-18 23:00N 47°02' W 002°18'0 0.0
2017-Nov-18 22:30N 47°02' W 002°18'0 0.0
2017-Nov-18 22:00N 47°02' W 002°18'0 0.0
2017-Nov-18 21:30N 47°02' W 002°18'0 0.0
2017-Nov-18 21:00N 47°02' W 002°18'0 0.0
2017-Nov-18 20:30N 47°02' W 002°18'0 0.0
2017-Nov-18 20:00N 47°02' W 002°18'0 0.0
2017-Nov-18 19:30N 47°02' W 002°18'0 0.0
2017-Nov-18 18:57N 47°02' W 002°18'0 0.0
2017-Nov-18 18:30N 47°02' W 002°18'0 0.0
2017-Nov-18 18:00N 47°02' W 002°18'0 0.0
2017-Nov-18 17:30N 47°02' W 002°18'0 0.0
2017-Nov-18 17:00N 47°02' W 002°18'0 0.0
2017-Nov-18 16:30N 47°02' W 002°18'0 0.0
2017-Nov-18 15:56N 47°02' W 002°18'0 0.0
2017-Nov-18 15:30N 47°02' W 002°18'0 0.0
2017-Nov-18 15:00N 47°02' W 002°18'0 0.0
2017-Nov-18 14:30N 47°02' W 002°18'0 0.0
2017-Nov-18 14:00N 47°02' W 002°18'0 0.1
2017-Nov-18 13:30N 47°02' W 002°18'3 6.9
2017-Nov-18 13:00N 46°60' W 002°22'31 1.3
2017-Nov-17 11:58N 46°29' W 002°27'0 1.0
2017-Nov-17 11:30N 46°28' W 002°28'1 1.6
2017-Nov-17 11:00N 46°29' W 002°29'2 4.3
2017-Nov-17 10:28N 46°27' W 002°27'1 1.9
2017-Nov-17 09:53N 46°28' W 002°28'1 2.3
2017-Nov-17 09:30N 46°28' W 002°28'1 1.9
2017-Nov-17 09:00N 46°28' W 002°28'0 0.3
2017-Nov-17 08:15N 46°28' W 002°28'1 2.3
2017-Nov-17 07:59N 46°28' W 002°28'1 1.3
2017-Nov-17 07:30N 46°28' W 002°27'0 0.7
2017-Nov-17 06:55N 46°28' W 002°27'1 1.9
2017-Nov-17 06:30N 46°28' W 002°28'1 0.8
2017-Nov-17 05:33N 46°28' W 002°27'0 1.4
2017-Nov-17 05:28N 46°28' W 002°27'1 0.8
2017-Nov-17 04:40N 46°29' W 002°27'1 2.1
2017-Nov-17 04:24N 46°28' W 002°26'0 0.6
2017-Nov-17 03:59N 46°28' W 002°26'1 1.1
2017-Nov-17 03:30N 46°29' W 002°26'1 1.5
2017-Nov-17 02:40N 46°28' W 002°26'0 0.0
2017-Nov-17 02:26N 46°28' W 002°26'0 0.0
2017-Nov-17 01:59N 46°28' W 002°26'0 0.0
2017-Nov-17 01:27N 46°28' W 002°25'0 0.0
2017-Nov-17 00:59N 46°28' W 002°25'0 0.0
2017-Nov-17 00:28N 46°28' W 002°25'0 0.0
2017-Nov-16 23:54N 46°28' W 002°25'0 0.0
2017-Nov-16 23:11N 46°28' W 002°25'0 0.0
2017-Nov-16 23:00N 46°28' W 002°25'0 0.1
2017-Nov-16 22:28N 46°28' W 002°26'0 0.0
2017-Nov-16 22:00N 46°28' W 002°26'0 0.0
2017-Nov-16 21:30N 46°28' W 002°26'0 0.0
2017-Nov-16 20:57N 46°28' W 002°26'0 0.0
2017-Nov-16 20:30N 46°28' W 002°26'0 0.0
2017-Nov-16 20:00N 46°28' W 002°26'0 0.0
2017-Nov-16 19:26N 46°28' W 002°26'0 0.0
2017-Nov-16 18:59N 46°28' W 002°26'0 0.0
2017-Nov-16 18:28N 46°28' W 002°26'0 0.0
2017-Nov-16 17:51N 46°28' W 002°26'0 0.0
2017-Nov-16 17:30N 46°28' W 002°25'0 0.0
2017-Nov-16 17:00N 46°28' W 002°25'0 0.0
2017-Nov-16 16:25N 46°28' W 002°25'0 0.0
2017-Nov-16 16:00N 46°28' W 002°25'0 0.2
2017-Nov-16 14:36N 46°28' W 002°26'0 0.1
2017-Nov-16 14:29N 46°28' W 002°26'0 0.1
2017-Nov-16 12:58N 46°28' W 002°26'1 2.7
2017-Nov-16 12:30N 46°29' W 002°27'0 0.9
2017-Nov-16 12:00N 46°29' W 002°28'0 0.9
2017-Nov-16 11:30N 46°28' W 002°28'2 3.5
2017-Nov-16 11:00N 46°27' W 002°27'1 1.8
2017-Nov-16 10:30N 46°27' W 002°28'1 2.0
2017-Nov-16 10:00N 46°28' W 002°28'1 1.3
2017-Nov-16 09:26N 46°28' W 002°28'1 0.4
2017-Nov-16 08:06N 46°28' W 002°28'1 2.5
2017-Nov-16 07:47N 46°28' W 002°27'0 1.2
2017-Nov-16 07:26N 46°27' W 002°27'1 1.9
2017-Nov-16 07:00N 46°28' W 002°27'1 1.2
2017-Nov-16 06:30N 46°29' W 002°27'1 0.5
2017-Nov-16 05:24N 46°28' W 002°27'1 0.9
2017-Nov-16 04:27N 46°28' W 002°26'1 1.2
2017-Nov-16 03:56N 46°28' W 002°26'0 0.3
2017-Nov-16 03:02N 46°28' W 002°26'0 2.1
2017-Nov-16 03:00N 46°28' W 002°26'0 0.1
2017-Nov-16 02:29N 46°28' W 002°26'0 0.0
2017-Nov-16 01:56N 46°28' W 002°26'0 0.0
2017-Nov-16 01:24N 46°28' W 002°26'0 0.0
2017-Nov-16 00:46N 46°28' W 002°26'0 0.0
2017-Nov-16 00:23N 46°28' W 002°26'0 0.0
2017-Nov-15 23:10N 46°28' W 002°26'0 0.0
2017-Nov-15 22:37N 46°28' W 002°26'0 0.0
2017-Nov-15 22:09N 46°28' W 002°26'0 0.0
2017-Nov-15 21:52N 46°28' W 002°26'0 0.0
2017-Nov-15 21:28N 46°28' W 002°26'0 0.0
2017-Nov-15 21:00N 46°28' W 002°26'0 0.0
2017-Nov-15 20:25N 46°28' W 002°26'0 0.0
2017-Nov-15 20:00N 46°28' W 002°26'0 0.0
2017-Nov-15 19:12N 46°28' W 002°26'0 0.0
2017-Nov-15 18:18N 46°28' W 002°26'0 0.0
2017-Nov-15 17:21N 46°28' W 002°26'1 0.1
2017-Nov-15 09:41N 46°28' W 002°27'0 2.3
2017-Nov-15 09:28N 46°28' W 002°28'1 2.0
2017-Nov-15 09:00N 46°27' W 002°27'1 1.3
2017-Nov-15 08:30N 46°27' W 002°27'1 1.5
2017-Nov-15 07:29N 46°28' W 002°28'1 1.5
2017-Nov-15 06:51N 46°27' W 002°27'1 1.5
2017-Nov-15 06:30N 46°27' W 002°27'1 0.9
2017-Nov-15 05:18N 46°28' W 002°27'1 2.1
2017-Nov-15 04:59N 46°28' W 002°28'1 1.1
2017-Nov-15 03:59N 46°28' W 002°26'1 1.6
2017-Nov-15 03:23N 46°28' W 002°27'1 1.8
2017-Nov-15 02:57N 46°28' W 002°26'1 1.0
2017-Nov-15 02:25N 46°28' W 002°26'0 0.0
2017-Nov-15 00:04N 46°28' W 002°26'0 0.1
2017-Nov-14 23:52N 46°28' W 002°26'0 0.0
2017-Nov-14 23:10N 46°28' W 002°26'0 0.0
2017-Nov-14 22:48N 46°28' W 002°26'0 0.0
2017-Nov-14 22:30N 46°28' W 002°26'0 0.0
2017-Nov-14 21:59N 46°28' W 002°26'0 0.0
2017-Nov-14 20:55N 46°28' W 002°26'15 0.8
2017-Nov-14 02:57N 46°19' W 002°11'9 9.6
2017-Nov-14 02:03N 46°27' W 002°13'2 9.6
2017-Nov-14 01:52N 46°29' W 002°13'3 9.5
2017-Nov-14 01:30N 46°32' W 002°14'28 9.1
2017-Nov-13 22:24N 47°00' W 002°22'3 8.9
2017-Nov-13 22:00N 47°02' W 002°18'  
Track history (hours):
 
Tides and Currents Weather Stations Pressure Air Temp Water Temp Dewpoint Dewpoint Depression Visibility Wind Speed Wind Dir Waves Ship Positions

F/V Roseau Du Lac

Last reported at 2017-Nov-20 00:30 UTC. Time now 2017-Nov-21 00:57 UTC.
Position N 47°02' W 002°18'.

Length 16 m.

Type: Fishing. MMSI: 227977000.

Date/timePositionNaut miles runAvg speedWind from/ knotsBaromVisibWave heightAir tempDewpointWater temp
2017-Nov-20 00:30N 47°02' W 002°18'0 0.0
2017-Nov-20 00:00N 47°02' W 002°18'0 0.0
2017-Nov-19 23:30N 47°02' W 002°18'0 0.0
2017-Nov-19 23:00N 47°02' W 002°18'0 0.0
2017-Nov-19 22:30N 47°02' W 002°18'0 0.0
2017-Nov-19 22:00N 47°02' W 002°18'0 0.0
2017-Nov-19 21:30N 47°02' W 002°18'0 0.0
2017-Nov-19 21:00N 47°02' W 002°18'0 0.0
2017-Nov-19 20:30N 47°02' W 002°18'0 0.0
2017-Nov-19 20:00N 47°02' W 002°18'0 0.0
2017-Nov-19 19:30N 47°02' W 002°18'0 0.0
2017-Nov-19 19:00N 47°02' W 002°18'0 0.0
2017-Nov-19 18:30N 47°02' W 002°18'0 0.0
2017-Nov-19 18:00N 47°02' W 002°18'0 0.0
2017-Nov-19 17:30N 47°02' W 002°18'0 0.0
2017-Nov-19 17:00N 47°02' W 002°18'0 0.0
2017-Nov-19 16:30N 47°02' W 002°18'0 0.0
2017-Nov-19 16:00N 47°02' W 002°18'0 0.0
2017-Nov-19 15:29N 47°02' W 002°18'0 0.0
2017-Nov-19 15:00N 47°02' W 002°18'0 0.0
2017-Nov-19 14:30N 47°02' W 002°18'0 0.0
2017-Nov-19 13:53N 47°02' W 002°18'0 0.0
2017-Nov-19 13:23N 47°02' W 002°18'0 0.0
2017-Nov-19 12:58N 47°02' W 002°18'0 0.0
2017-Nov-19 12:29N 47°02' W 002°18'0 0.0
2017-Nov-19 12:00N 47°02' W 002°18'0 0.0
2017-Nov-19 11:30N 47°02' W 002°18'0 0.0
2017-Nov-19 11:00N 47°02' W 002°18'0 0.0
2017-Nov-19 10:30N 47°02' W 002°18'0 0.0
2017-Nov-19 10:00N 47°02' W 002°18'0 0.0
2017-Nov-19 09:30N 47°02' W 002°18'0 0.0
2017-Nov-19 09:00N 47°02' W 002°18'0 0.0
2017-Nov-19 08:30N 47°02' W 002°18'0 0.0
2017-Nov-19 08:00N 47°02' W 002°18'0 0.0
2017-Nov-19 07:30N 47°02' W 002°18'0 0.0
2017-Nov-19 07:00N 47°02' W 002°18'0 0.0
2017-Nov-19 06:30N 47°02' W 002°18'0 0.0
2017-Nov-19 06:00N 47°02' W 002°18'0 0.0
2017-Nov-19 05:30N 47°02' W 002°18'0 0.0
2017-Nov-19 05:00N 47°02' W 002°18'0 0.0
2017-Nov-19 04:30N 47°02' W 002°18'0 0.0
2017-Nov-19 03:59N 47°02' W 002°18'0 0.0
2017-Nov-19 03:30N 47°02' W 002°18'0 0.0
2017-Nov-19 02:53N 47°02' W 002°18'0 0.0
2017-Nov-19 02:30N 47°02' W 002°18'0 0.0
2017-Nov-19 02:00N 47°02' W 002°18'0 0.0
2017-Nov-19 01:29N 47°02' W 002°18'0 0.0
2017-Nov-19 00:58N 47°02' W 002°18'0 0.0
2017-Nov-19 00:30N 47°02' W 002°18'0 0.0
2017-Nov-19 00:00N 47°02' W 002°18'0 0.0
2017-Nov-18 23:30N 47°02' W 002°18'0 0.0
2017-Nov-18 23:00N 47°02' W 002°18'0 0.0
2017-Nov-18 22:30N 47°02' W 002°18'0 0.0
2017-Nov-18 22:00N 47°02' W 002°18'0 0.0
2017-Nov-18 21:30N 47°02' W 002°18'0 0.0
2017-Nov-18 21:00N 47°02' W 002°18'0 0.0
2017-Nov-18 20:30N 47°02' W 002°18'0 0.0
2017-Nov-18 20:00N 47°02' W 002°18'0 0.0
2017-Nov-18 19:30N 47°02' W 002°18'0 0.0
2017-Nov-18 18:57N 47°02' W 002°18'0 0.0
2017-Nov-18 18:30N 47°02' W 002°18'0 0.0
2017-Nov-18 18:00N 47°02' W 002°18'0 0.0
2017-Nov-18 17:30N 47°02' W 002°18'0 0.0
2017-Nov-18 17:00N 47°02' W 002°18'0 0.0
2017-Nov-18 16:30N 47°02' W 002°18'0 0.0
2017-Nov-18 15:56N 47°02' W 002°18'0 0.0
2017-Nov-18 15:30N 47°02' W 002°18'0 0.0
2017-Nov-18 15:00N 47°02' W 002°18'0 0.0
2017-Nov-18 14:30N 47°02' W 002°18'0 0.0
2017-Nov-18 14:00N 47°02' W 002°18'0 0.1
2017-Nov-18 13:30N 47°02' W 002°18'3 6.9
2017-Nov-18 13:00N 46°60' W 002°22'31 1.3
2017-Nov-17 11:58N 46°29' W 002°27'0 1.0
2017-Nov-17 11:30N 46°28' W 002°28'1 1.6
2017-Nov-17 11:00N 46°29' W 002°29'2 4.3
2017-Nov-17 10:28N 46°27' W 002°27'1 1.9
2017-Nov-17 09:53N 46°28' W 002°28'1 2.3
2017-Nov-17 09:30N 46°28' W 002°28'1 1.9
2017-Nov-17 09:00N 46°28' W 002°28'0 0.3
2017-Nov-17 08:15N 46°28' W 002°28'1 2.3
2017-Nov-17 07:59N 46°28' W 002°28'1 1.3
2017-Nov-17 07:30N 46°28' W 002°27'0 0.7
2017-Nov-17 06:55N 46°28' W 002°27'1 1.9
2017-Nov-17 06:30N 46°28' W 002°28'1 0.8
2017-Nov-17 05:33N 46°28' W 002°27'0 1.4
2017-Nov-17 05:28N 46°28' W 002°27'1 0.8
2017-Nov-17 04:40N 46°29' W 002°27'1 2.1
2017-Nov-17 04:24N 46°28' W 002°26'0 0.6
2017-Nov-17 03:59N 46°28' W 002°26'1 1.1
2017-Nov-17 03:30N 46°29' W 002°26'1 1.5
2017-Nov-17 02:40N 46°28' W 002°26'0 0.0
2017-Nov-17 02:26N 46°28' W 002°26'0 0.0
2017-Nov-17 01:59N 46°28' W 002°26'0 0.0
2017-Nov-17 01:27N 46°28' W 002°25'0 0.0
2017-Nov-17 00:59N 46°28' W 002°25'0 0.0
2017-Nov-17 00:28N 46°28' W 002°25'0 0.0
2017-Nov-16 23:54N 46°28' W 002°25'0 0.0
2017-Nov-16 23:11N 46°28' W 002°25'0 0.0
2017-Nov-16 23:00N 46°28' W 002°25'0 0.1
2017-Nov-16 22:28N 46°28' W 002°26'0 0.0
2017-Nov-16 22:00N 46°28' W 002°26'0 0.0
2017-Nov-16 21:30N 46°28' W 002°26'0 0.0
2017-Nov-16 20:57N 46°28' W 002°26'0 0.0
2017-Nov-16 20:30N 46°28' W 002°26'0 0.0
2017-Nov-16 20:00N 46°28' W 002°26'0 0.0
2017-Nov-16 19:26N 46°28' W 002°26'0 0.0
2017-Nov-16 18:59N 46°28' W 002°26'0 0.0
2017-Nov-16 18:28N 46°28' W 002°26'0 0.0
2017-Nov-16 17:51N 46°28' W 002°26'0 0.0
2017-Nov-16 17:30N 46°28' W 002°25'0 0.0
2017-Nov-16 17:00N 46°28' W 002°25'0 0.0
2017-Nov-16 16:25N 46°28' W 002°25'0 0.0
2017-Nov-16 16:00N 46°28' W 002°25'0 0.2
2017-Nov-16 14:36N 46°28' W 002°26'0 0.1
2017-Nov-16 14:29N 46°28' W 002°26'0 0.1
2017-Nov-16 12:58N 46°28' W 002°26'1 2.7
2017-Nov-16 12:30N 46°29' W 002°27'0 0.9
2017-Nov-16 12:00N 46°29' W 002°28'0 0.9
2017-Nov-16 11:30N 46°28' W 002°28'2 3.5
2017-Nov-16 11:00N 46°27' W 002°27'1 1.8
2017-Nov-16 10:30N 46°27' W 002°28'1 2.0
2017-Nov-16 10:00N 46°28' W 002°28'1 1.3
2017-Nov-16 09:26N 46°28' W 002°28'1 0.4
2017-Nov-16 08:06N 46°28' W 002°28'1 2.5
2017-Nov-16 07:47N 46°28' W 002°27'0 1.2
2017-Nov-16 07:26N 46°27' W 002°27'1 1.9
2017-Nov-16 07:00N 46°28' W 002°27'1 1.2
2017-Nov-16 06:30N 46°29' W 002°27'1 0.5
2017-Nov-16 05:24N 46°28' W 002°27'1 0.9
2017-Nov-16 04:27N 46°28' W 002°26'1 1.2
2017-Nov-16 03:56N 46°28' W 002°26'0 0.3
2017-Nov-16 03:02N 46°28' W 002°26'0 2.1
2017-Nov-16 03:00N 46°28' W 002°26'0 0.1
2017-Nov-16 02:29N 46°28' W 002°26'0 0.0
2017-Nov-16 01:56N 46°28' W 002°26'0 0.0
2017-Nov-16 01:24N 46°28' W 002°26'0 0.0
2017-Nov-16 00:46N 46°28' W 002°26'0 0.0
2017-Nov-16 00:23N 46°28' W 002°26'0 0.0
2017-Nov-15 23:10N 46°28' W 002°26'0 0.0
2017-Nov-15 22:37N 46°28' W 002°26'0 0.0
2017-Nov-15 22:09N 46°28' W 002°26'0 0.0
2017-Nov-15 21:52N 46°28' W 002°26'0 0.0
2017-Nov-15 21:28N 46°28' W 002°26'0 0.0
2017-Nov-15 21:00N 46°28' W 002°26'0 0.0
2017-Nov-15 20:25N 46°28' W 002°26'0 0.0
2017-Nov-15 20:00N 46°28' W 002°26'0 0.0
2017-Nov-15 19:12N 46°28' W 002°26'0 0.0
2017-Nov-15 18:18N 46°28' W 002°26'0 0.0
2017-Nov-15 17:21N 46°28' W 002°26'1 0.1
2017-Nov-15 09:41N 46°28' W 002°27'0 2.3
2017-Nov-15 09:28N 46°28' W 002°28'1 2.0
2017-Nov-15 09:00N 46°27' W 002°27'1 1.3
2017-Nov-15 08:30N 46°27' W 002°27'1 1.5
2017-Nov-15 07:29N 46°28' W 002°28'1 1.5
2017-Nov-15 06:51N 46°27' W 002°27'1 1.5
2017-Nov-15 06:30N 46°27' W 002°27'1 0.9
2017-Nov-15 05:18N 46°28' W 002°27'1 2.1
2017-Nov-15 04:59N 46°28' W 002°28'1 1.1
2017-Nov-15 03:59N 46°28' W 002°26'1 1.6
2017-Nov-15 03:23N 46°28' W 002°27'1 1.8
2017-Nov-15 02:57N 46°28' W 002°26'1 1.0
2017-Nov-15 02:25N 46°28' W 002°26'0 0.0
2017-Nov-15 00:04N 46°28' W 002°26'0 0.1
2017-Nov-14 23:52N 46°28' W 002°26'0 0.0
2017-Nov-14 23:10N 46°28' W 002°26'0 0.0
2017-Nov-14 22:48N 46°28' W 002°26'0 0.0
2017-Nov-14 22:30N 46°28' W 002°26'0 0.0
2017-Nov-14 21:59N 46°28' W 002°26'0 0.0
2017-Nov-14 20:55N 46°28' W 002°26'15 0.8
2017-Nov-14 02:57N 46°19' W 002°11'9 9.6
2017-Nov-14 02:03N 46°27' W 002°13'2 9.6
2017-Nov-14 01:52N 46°29' W 002°13'3 9.5
2017-Nov-14 01:30N 46°32' W 002°14'28 9.1
2017-Nov-13 22:24N 47°00' W 002°22'3 8.9
2017-Nov-13 22:00N 47°02' W 002°18'  

Dump ship's entire track history